createdAt,value
2022-09-06T00:01:59.133Z,15.67
2022-09-06T00:04:29.229Z,15.69
2022-09-06T00:07:01.815Z,15.58
2022-09-06T00:09:31.809Z,15.51
2022-09-06T00:12:01.814Z,15.50
2022-09-06T00:14:32.746Z,15.48
2022-09-06T00:17:03.509Z,15.49
2022-09-06T00:19:33.479Z,15.42
2022-09-06T00:22:06.274Z,15.37
2022-09-06T00:24:37.223Z,15.35
2022-09-06T00:27:08.291Z,15.27
2022-09-06T00:29:38.785Z,15.27
2022-09-06T00:32:09.163Z,15.23
2022-09-06T00:34:39.162Z,15.17
2022-09-06T00:37:11.732Z,15.09
2022-09-06T00:39:41.829Z,15.11
2022-09-06T00:42:13.487Z,15.16
2022-09-06T00:44:43.986Z,15.09
2022-09-06T00:47:14.029Z,15.12
2022-09-06T00:49:50.283Z,15.12
2022-09-06T00:52:23.720Z,15.10
2022-09-06T00:54:54.404Z,15.03
2022-09-06T00:57:27.160Z,14.95
2022-09-06T00:59:59.025Z,14.98
2022-09-06T01:02:29.258Z,14.93
2022-09-06T01:05:00.222Z,14.91
2022-09-06T01:08:03.910Z,14.80
2022-09-06T01:10:59.077Z,14.78
2022-09-06T01:13:49.726Z,14.81
2022-09-06T01:16:34.277Z,14.77
2022-09-06T01:20:09.665Z,14.75
2022-09-06T01:23:34.164Z,14.80
2022-09-06T01:26:25.788Z,14.81
2022-09-06T01:28:58.507Z,14.77
2022-09-06T01:31:38.092Z,14.90
2022-09-06T01:34:24.318Z,14.98
2022-09-06T01:37:09.864Z,14.95
2022-09-06T01:39:43.075Z,14.93
2022-09-06T01:42:19.485Z,14.94
2022-09-06T01:44:57.907Z,14.96
2022-09-06T01:47:42.085Z,14.89
2022-09-06T01:50:55.224Z,14.81
2022-09-06T01:53:51.118Z,14.80
2022-09-06T01:56:39.792Z,14.78
2022-09-06T01:59:41.775Z,14.80
2022-09-06T02:02:21.921Z,14.80
2022-09-06T02:05:01.473Z,14.80
2022-09-06T02:07:35.726Z,14.81
2022-09-06T02:10:17.138Z,14.85
2022-09-06T02:12:52.602Z,14.90
2022-09-06T02:15:28.290Z,14.92
2022-09-06T02:18:12.925Z,14.92
2022-09-06T02:20:50.835Z,14.92
2022-09-06T02:23:24.439Z,14.93
2022-09-06T02:26:00.213Z,14.95
2022-09-06T02:28:30.638Z,14.97
2022-09-06T02:31:08.506Z,14.88
2022-09-06T02:33:41.362Z,14.83
2022-09-06T02:36:12.762Z,15.07
2022-09-06T02:38:44.729Z,15.29
2022-09-06T02:41:18.438Z,15.40
2022-09-06T02:43:48.429Z,15.57
2022-09-06T02:46:18.801Z,15.68
2022-09-06T02:48:51.452Z,15.76
2022-09-06T02:51:21.924Z,15.94
2022-09-06T02:53:52.033Z,16.03
2022-09-06T02:56:22.016Z,16.09
2022-09-06T02:58:52.452Z,16.17
2022-09-06T03:01:22.539Z,16.24
2022-09-06T03:03:56.088Z,16.27
2022-09-06T03:06:26.112Z,16.37
2022-09-06T03:08:56.104Z,16.35
2022-09-06T03:11:26.189Z,16.42
2022-09-06T03:13:56.491Z,16.51
2022-09-06T03:16:26.609Z,16.45
2022-09-06T03:18:59.225Z,16.41
2022-09-06T03:21:29.234Z,16.32
2022-09-06T03:23:59.400Z,16.08
2022-09-06T03:26:30.700Z,15.95
2022-09-06T03:29:00.682Z,15.96
2022-09-06T03:31:30.720Z,16.02
2022-09-06T03:34:03.322Z,16.13
2022-09-06T03:36:33.380Z,16.19
2022-09-06T03:39:03.380Z,16.25
2022-09-06T03:41:33.430Z,16.42
2022-09-06T03:44:03.416Z,16.40
2022-09-06T03:46:33.471Z,16.38
2022-09-06T03:49:06.129Z,16.46
2022-09-06T03:51:36.106Z,16.37
2022-09-06T03:54:06.359Z,16.31
2022-09-06T03:56:37.330Z,16.24
2022-09-06T03:59:07.468Z,16.10
2022-09-06T04:01:37.791Z,15.93
2022-09-06T04:04:10.454Z,15.85
2022-09-06T04:06:40.500Z,15.79
2022-09-06T04:09:10.809Z,15.75
2022-09-06T04:11:43.792Z,15.79
2022-09-06T04:14:14.972Z,15.72
2022-09-06T04:16:45.133Z,15.65
2022-09-06T04:19:17.814Z,15.61
2022-09-06T04:21:48.113Z,15.59
2022-09-06T04:24:18.405Z,15.58
2022-09-06T04:26:48.430Z,15.53
2022-09-06T04:29:18.459Z,15.57
2022-09-06T04:31:48.590Z,15.60
2022-09-06T04:34:21.293Z,15.64
2022-09-06T04:36:51.300Z,15.71
2022-09-06T04:39:21.273Z,15.69
2022-09-06T04:41:51.252Z,15.65
2022-09-06T04:44:21.256Z,15.75
2022-09-06T04:46:51.312Z,15.79
2022-09-06T04:49:23.926Z,15.73
2022-09-06T04:51:53.890Z,15.63
2022-09-06T04:54:23.905Z,15.61
2022-09-06T04:56:53.932Z,15.50
2022-09-06T04:59:24.226Z,15.47
2022-09-06T05:01:54.272Z,15.44
2022-09-06T05:04:27.033Z,15.47
2022-09-06T05:07:05.163Z,15.47
2022-09-06T05:09:36.871Z,15.56
2022-09-06T05:12:07.965Z,15.57
2022-09-06T05:14:38.277Z,15.70
2022-09-06T05:17:08.518Z,15.78
2022-09-06T05:19:41.023Z,15.81
2022-09-06T05:22:11.056Z,15.92
2022-09-06T05:24:41.045Z,16.00
2022-09-06T05:27:12.769Z,16.12
2022-09-06T05:29:42.760Z,16.08
2022-09-06T05:32:12.974Z,16.09
2022-09-06T05:34:45.544Z,16.11
2022-09-06T05:37:15.537Z,16.30
2022-09-06T05:39:45.562Z,16.49
2022-09-06T05:42:19.167Z,16.67
2022-09-06T05:44:49.698Z,16.75
2022-09-06T05:47:19.731Z,16.85
2022-09-06T05:49:52.260Z,16.87
2022-09-06T05:52:22.248Z,16.84
2022-09-06T05:54:52.191Z,16.78
2022-09-06T05:57:22.161Z,16.85
2022-09-06T05:59:53.561Z,17.08
2022-09-06T06:02:23.964Z,17.19
2022-09-06T06:04:58.358Z,17.29
2022-09-06T06:07:28.365Z,17.39
2022-09-06T06:09:58.305Z,17.47
2022-09-06T06:12:28.414Z,17.51
2022-09-06T06:14:58.441Z,17.62
2022-09-06T06:17:28.634Z,17.64
2022-09-06T06:20:01.181Z,17.71
2022-09-06T06:22:31.152Z,17.70
2022-09-06T06:25:01.114Z,17.72
2022-09-06T06:27:31.057Z,17.69
2022-09-06T06:30:01.060Z,17.67
2022-09-06T06:32:31.242Z,17.80
2022-09-06T06:35:04.358Z,17.99
2022-09-06T06:37:36.193Z,18.12
2022-09-06T06:40:07.760Z,18.28
2022-09-06T06:42:37.746Z,18.53
2022-09-06T06:45:10.211Z,18.84
2022-09-06T06:47:40.333Z,19.04
2022-09-06T06:50:13.528Z,19.21
2022-09-06T06:52:43.498Z,19.33
2022-09-06T06:55:13.474Z,19.69
2022-09-06T06:57:43.431Z,20.77
2022-09-06T07:00:15.559Z,21.74
2022-09-06T07:02:45.577Z,22.02
2022-09-06T07:08:09.322Z,23.49
2022-09-06T07:10:39.769Z,24.10
2022-09-06T07:13:09.768Z,24.10
2022-09-06T07:15:39.824Z,23.91
2022-09-06T07:18:10.104Z,23.72
2022-09-06T07:26:26.087Z,24.79
2022-09-06T07:28:57.118Z,24.25
2022-09-06T07:34:18.092Z,24.27
2022-09-06T07:36:50.934Z,24.05
2022-09-06T07:39:20.954Z,24.04
2022-09-06T07:41:51.206Z,24.08
2022-09-06T07:44:21.166Z,24.32
2022-09-06T07:46:52.646Z,24.92
2022-09-06T07:49:22.848Z,26.19
2022-09-06T07:51:55.396Z,27.67
2022-09-06T07:54:30.512Z,28.61
2022-09-06T07:57:01.042Z,30.13
2022-09-06T07:59:31.048Z,31.02
2022-09-06T08:02:01.068Z,31.09
2022-09-06T08:04:31.462Z,30.98
2022-09-06T08:09:54.252Z,30.47
2022-09-06T08:12:24.807Z,31.25
2022-09-06T08:14:54.780Z,31.67
2022-09-06T08:17:24.837Z,32.27
2022-09-06T08:19:55.073Z,31.92
2022-09-06T08:22:27.641Z,31.99
2022-09-06T08:24:57.612Z,32.11
2022-09-06T08:27:28.780Z,31.84
2022-09-06T08:29:58.949Z,32.18
2022-09-06T08:32:29.037Z,32.68
2022-09-06T08:34:59.084Z,32.31
2022-09-06T08:37:31.657Z,32.15
2022-09-06T08:40:01.766Z,32.33
2022-09-06T08:42:34.067Z,32.52
2022-09-06T08:45:09.258Z,32.43
2022-09-06T08:47:39.406Z,31.82
2022-09-06T08:50:12.135Z,32.16
2022-09-06T08:53:15.691Z,32.82
2022-09-06T08:55:55.126Z,33.65
2022-09-06T08:58:48.277Z,34.05
2022-09-06T09:01:25.781Z,33.66
2022-09-06T09:04:00.215Z,32.80
2022-09-06T09:06:32.436Z,33.07
2022-09-06T09:09:09.933Z,33.35
2022-09-06T09:11:45.019Z,34.06
2022-09-06T09:14:21.496Z,34.89
2022-09-06T09:16:54.332Z,34.43
2022-09-06T09:19:24.704Z,33.85
2022-09-06T09:21:54.737Z,33.55
2022-09-06T09:24:27.314Z,32.93
2022-09-06T09:27:06.595Z,32.41
2022-09-06T09:32:51.350Z,32.45
2022-09-06T09:35:33.549Z,33.31
2022-09-06T09:38:12.171Z,33.85
2022-09-06T09:40:54.140Z,33.29
2022-09-06T09:43:26.709Z,33.75
2022-09-06T09:46:19.255Z,34.79
2022-09-06T09:49:04.521Z,34.53
2022-09-06T09:51:36.435Z,35.40
2022-09-06T09:54:10.234Z,35.44
2022-09-06T09:56:50.412Z,34.87
2022-09-06T09:59:26.669Z,34.58
2022-09-06T10:02:01.586Z,35.57
2022-09-06T10:07:15.928Z,35.98
2022-09-06T10:09:49.527Z,35.14
2022-09-06T10:12:32.704Z,35.80
2022-09-06T10:15:07.050Z,35.00
2022-09-06T10:17:40.155Z,35.68
2022-09-06T10:20:15.115Z,35.52
2022-09-06T10:23:00.183Z,35.38
2022-09-06T10:25:49.885Z,34.73
2022-09-06T10:28:32.833Z,34.30
2022-09-06T10:31:36.986Z,33.69
2022-09-06T10:34:46.026Z,33.79
2022-09-06T10:37:39.158Z,34.02
2022-09-06T10:40:13.953Z,34.46
2022-09-06T10:42:50.460Z,33.84
2022-09-06T10:45:45.917Z,33.50
2022-09-06T10:48:24.206Z,33.18
2022-09-06T10:50:58.920Z,32.83
2022-09-06T10:53:42.362Z,32.46
2022-09-06T10:56:21.074Z,32.37
2022-09-06T11:02:11.934Z,32.47
2022-09-06T11:07:39.708Z,32.40
2022-09-06T11:10:23.080Z,32.63
2022-09-06T11:13:02.924Z,32.36
2022-09-06T11:15:45.345Z,33.10
2022-09-06T11:18:26.508Z,33.76
2022-09-06T11:21:33.590Z,33.55
2022-09-06T11:24:15.080Z,33.61
2022-09-06T11:27:04.109Z,33.07
2022-09-06T11:29:37.110Z,33.15
2022-09-06T11:32:33.944Z,32.82
2022-09-06T11:35:11.282Z,31.98
2022-09-06T11:37:49.745Z,32.12
2022-09-06T11:43:21.781Z,31.66
2022-09-06T11:45:54.304Z,31.39
2022-09-06T11:48:39.005Z,31.53
2022-09-06T11:51:13.386Z,31.71
2022-09-06T11:54:26.980Z,31.97
2022-09-06T11:57:03.892Z,32.10
2022-09-06T11:59:44.419Z,32.04
2022-09-06T12:02:36.384Z,33.02
2022-09-06T12:05:36.446Z,33.69
2022-09-06T12:08:36.160Z,35.52
2022-09-06T12:11:41.756Z,36.26
2022-09-06T12:14:33.062Z,35.76
2022-09-06T12:17:24.409Z,36.97
2022-09-06T12:20:06.716Z,37.44
2022-09-06T12:22:56.644Z,37.58
2022-09-06T12:26:00.587Z,37.77
2022-09-06T12:28:45.160Z,36.93
2022-09-06T12:31:41.231Z,36.29
2022-09-06T12:34:17.288Z,35.46
2022-09-06T12:36:56.854Z,35.32
2022-09-06T12:39:27.765Z,35.56
2022-09-06T12:42:06.543Z,35.34
2022-09-06T12:44:40.065Z,34.26
2022-09-06T12:47:17.235Z,34.37
2022-09-06T12:49:47.261Z,34.65
2022-09-06T12:52:22.093Z,35.22
2022-09-06T12:54:53.387Z,34.70
2022-09-06T12:57:29.700Z,34.88
2022-09-06T13:00:01.722Z,34.62
2022-09-06T13:02:41.235Z,34.50
2022-09-06T13:05:14.846Z,33.86
2022-09-06T13:07:49.681Z,33.10
2022-09-06T13:10:25.799Z,32.94
2022-09-06T13:13:01.893Z,33.03
2022-09-06T13:15:33.705Z,32.43
2022-09-06T13:18:27.151Z,31.78
2022-09-06T13:21:03.161Z,31.70
2022-09-06T13:23:43.895Z,31.60
2022-09-06T13:26:14.028Z,31.16
2022-09-06T13:28:46.613Z,31.11
2022-09-06T13:31:26.199Z,31.03
2022-09-06T13:34:00.571Z,30.23
2022-09-06T13:36:34.032Z,30.20
2022-09-06T13:39:04.564Z,30.69
2022-09-06T13:41:44.521Z,31.01
2022-09-06T13:44:33.121Z,31.11
2022-09-06T13:47:03.317Z,30.61
2022-09-06T13:49:34.018Z,30.24
2022-09-06T13:52:08.178Z,29.88
2022-09-06T13:54:40.057Z,29.98
2022-09-06T13:57:10.033Z,30.69
2022-09-06T13:59:42.888Z,30.96
2022-09-06T14:02:20.610Z,31.23
2022-09-06T14:04:50.570Z,31.27
2022-09-06T14:07:20.776Z,29.93
2022-09-06T14:09:51.329Z,29.02
2022-09-06T14:12:21.381Z,28.86
2022-09-06T14:14:53.923Z,29.97
2022-09-06T14:17:24.170Z,31.57
2022-09-06T14:19:54.430Z,31.78
2022-09-06T14:22:24.699Z,31.93
2022-09-06T14:24:55.266Z,31.26
2022-09-06T14:27:25.311Z,30.72
2022-09-06T14:29:57.866Z,30.31
2022-09-06T14:32:27.985Z,29.54
2022-09-06T14:34:57.960Z,29.44
2022-09-06T14:37:28.124Z,29.28
2022-09-06T14:39:58.227Z,29.48
2022-09-06T14:42:28.544Z,30.45
2022-09-06T14:45:01.093Z,30.81
2022-09-06T14:47:31.924Z,31.06
2022-09-06T14:50:02.274Z,31.01
2022-09-06T14:52:32.268Z,31.41
2022-09-06T14:55:02.483Z,31.12
2022-09-06T14:57:32.673Z,31.77
2022-09-06T15:00:09.845Z,31.49
2022-09-06T15:02:40.473Z,30.30
2022-09-06T15:05:11.305Z,29.89
2022-09-06T15:07:41.295Z,30.25
2022-09-06T15:10:12.184Z,29.89
2022-09-06T15:12:42.196Z,29.86
2022-09-06T15:15:14.989Z,30.65
2022-09-06T15:17:45.564Z,31.10
2022-09-06T15:20:17.056Z,31.14
2022-09-06T15:22:47.084Z,31.35
2022-09-06T15:25:17.191Z,32.41
2022-09-06T15:27:47.185Z,32.57
2022-09-06T15:30:20.017Z,32.43
2022-09-06T15:32:50.017Z,31.35
2022-09-06T15:35:20.261Z,30.94
2022-09-06T15:37:50.646Z,30.28
2022-09-06T15:40:24.367Z,30.06
2022-09-06T15:42:54.342Z,29.73
2022-09-06T15:45:26.929Z,29.37
2022-09-06T15:47:57.885Z,29.44
2022-09-06T15:50:49.826Z,29.10
2022-09-06T15:53:17.914Z,28.79
2022-09-06T15:56:00.785Z,28.93
2022-09-06T15:58:31.420Z,29.12
2022-09-06T16:01:11.175Z,29.15
2022-09-06T16:03:44.964Z,29.37
2022-09-06T16:09:00.081Z,29.73
2022-09-06T16:11:32.688Z,30.18
2022-09-06T16:14:03.290Z,31.19
2022-09-06T16:16:36.649Z,32.38
2022-09-06T16:19:07.117Z,34.61
2022-09-06T16:21:40.640Z,36.00
2022-09-06T16:24:13.483Z,36.84
2022-09-06T16:26:46.293Z,36.65
2022-09-06T16:29:19.294Z,36.24
2022-09-06T16:31:54.173Z,35.40
2022-09-06T16:34:24.143Z,33.53
2022-09-06T16:36:55.256Z,32.14
2022-09-06T16:39:25.357Z,31.35
2022-09-06T16:41:55.503Z,30.43
2022-09-06T16:44:26.191Z,29.94
2022-09-06T16:47:01.095Z,29.46
2022-09-06T16:49:31.253Z,29.02
2022-09-06T16:52:01.200Z,28.88
2022-09-06T16:54:31.180Z,27.66
2022-09-06T16:57:01.176Z,26.71
2022-09-06T16:59:31.360Z,26.63
2022-09-06T17:02:04.003Z,26.40
2022-09-06T17:04:34.107Z,26.57
2022-09-06T17:07:04.076Z,26.40
2022-09-06T17:09:35.316Z,26.45
2022-09-06T17:12:06.089Z,26.45
2022-09-06T17:14:36.643Z,26.46
2022-09-06T17:17:07.341Z,26.21
2022-09-06T17:19:41.311Z,25.95
2022-09-06T17:22:12.833Z,25.75
2022-09-06T17:24:44.103Z,25.46
2022-09-06T17:27:14.520Z,25.29
2022-09-06T17:29:44.882Z,25.10
2022-09-06T17:32:17.462Z,24.89
2022-09-06T17:34:47.455Z,24.71
2022-09-06T17:37:17.416Z,24.52
2022-09-06T17:39:47.719Z,24.29
2022-09-06T17:42:18.019Z,24.06
2022-09-06T17:44:48.177Z,23.86
2022-09-06T17:47:20.887Z,23.65
2022-09-06T17:49:50.822Z,23.43
2022-09-06T17:52:20.788Z,23.28
2022-09-06T17:54:50.749Z,23.13
2022-09-06T17:57:20.725Z,22.93
2022-09-06T17:59:50.698Z,22.73
2022-09-06T18:02:23.260Z,22.62
2022-09-06T18:04:53.313Z,22.50
2022-09-06T18:07:23.292Z,22.40
2022-09-06T18:09:53.324Z,22.24
2022-09-06T18:12:24.240Z,22.12
2022-09-06T18:14:54.294Z,22.00
2022-09-06T18:17:27.301Z,21.88
2022-09-06T18:19:57.742Z,21.80
2022-09-06T18:22:27.827Z,21.70
2022-09-06T18:24:58.574Z,21.60
2022-09-06T18:27:28.908Z,21.53
2022-09-06T18:29:58.917Z,21.42
2022-09-06T18:32:31.624Z,21.25
2022-09-06T18:35:01.569Z,21.24
2022-09-06T18:37:31.560Z,21.12
2022-09-06T18:40:01.600Z,21.11
2022-09-06T18:42:32.081Z,21.02
2022-09-06T18:45:02.102Z,20.98
2022-09-06T18:47:34.666Z,20.98
2022-09-06T18:50:05.045Z,20.94
2022-09-06T18:52:35.940Z,20.92
2022-09-06T18:55:06.462Z,20.89
2022-09-06T18:57:36.434Z,20.92
2022-09-06T19:00:07.587Z,20.87
2022-09-06T19:02:40.282Z,20.79
2022-09-06T19:05:10.800Z,20.62
2022-09-06T19:07:40.772Z,20.62
2022-09-06T19:10:11.478Z,20.44
2022-09-06T19:12:41.432Z,20.33
2022-09-06T19:15:13.325Z,20.37
2022-09-06T19:17:45.951Z,20.31
2022-09-06T19:20:17.074Z,20.26
2022-09-06T19:22:47.590Z,20.15
2022-09-06T19:25:17.782Z,20.08
2022-09-06T19:27:48.941Z,20.03
2022-09-06T19:30:19.928Z,20.04
2022-09-06T19:32:52.465Z,20.06
2022-09-06T19:35:22.439Z,19.89
2022-09-06T19:37:52.444Z,19.75
2022-09-06T19:40:22.431Z,19.74
2022-09-06T19:42:52.425Z,19.73
2022-09-06T19:45:22.399Z,19.61
2022-09-06T19:47:54.973Z,19.62
2022-09-06T19:50:24.954Z,19.63
2022-09-06T19:52:56.419Z,19.61
2022-09-06T19:55:26.357Z,19.60
2022-09-06T19:57:56.304Z,19.59
2022-09-06T20:00:27.001Z,19.64
2022-09-06T20:03:00.006Z,19.59
2022-09-06T20:05:29.989Z,19.59
2022-09-06T20:08:00.584Z,19.60
2022-09-06T20:10:30.573Z,19.62
2022-09-06T20:13:00.540Z,19.59
2022-09-06T20:15:30.724Z,19.58
2022-09-06T20:18:03.316Z,19.54
2022-09-06T20:20:35.352Z,19.49
2022-09-06T20:23:05.415Z,19.49
2022-09-06T20:25:35.438Z,19.34
2022-09-06T20:28:06.362Z,19.22
2022-09-06T20:30:36.647Z,19.03
2022-09-06T20:33:09.190Z,18.98
2022-09-06T20:35:39.170Z,18.89
2022-09-06T20:38:09.125Z,18.93
2022-09-06T20:40:39.145Z,18.93
2022-09-06T20:43:09.165Z,18.85
2022-09-06T20:45:39.218Z,18.70
2022-09-06T20:48:11.812Z,18.62
2022-09-06T20:50:41.780Z,18.60
2022-09-06T20:53:11.691Z,18.56
2022-09-06T20:55:41.767Z,18.53
2022-09-06T20:58:11.718Z,18.52
2022-09-06T21:00:42.870Z,18.49
2022-09-06T21:03:15.449Z,18.52
2022-09-06T21:05:45.575Z,18.56
2022-09-06T21:08:15.908Z,18.62
2022-09-06T21:10:46.021Z,18.63
2022-09-06T21:13:16.113Z,18.70
2022-09-06T21:15:50.686Z,18.70
2022-09-06T21:18:23.386Z,18.67
2022-09-06T21:20:57.196Z,18.69
2022-09-06T21:23:28.340Z,18.62
2022-09-06T21:26:00.453Z,18.67
2022-09-06T21:28:32.536Z,18.75
2022-09-06T21:31:04.638Z,18.71
2022-09-06T21:33:40.623Z,18.69
2022-09-06T21:36:13.815Z,18.62
2022-09-06T21:38:47.033Z,18.59
2022-09-06T21:41:20.040Z,18.64
2022-09-06T21:43:55.903Z,18.70
2022-09-06T21:46:32.687Z,18.83
2022-09-06T21:49:08.959Z,18.93
2022-09-06T21:51:39.841Z,18.95
2022-09-06T21:54:09.839Z,18.97
2022-09-06T21:56:41.944Z,18.97
2022-09-06T21:59:12.692Z,18.97
2022-09-06T22:01:45.235Z,18.97
2022-09-06T22:04:17.941Z,18.95
2022-09-06T22:06:48.161Z,18.88
2022-09-06T22:09:18.162Z,18.86
2022-09-06T22:11:48.209Z,18.80
2022-09-06T22:14:18.233Z,18.73
2022-09-06T22:16:48.239Z,18.65
2022-09-06T22:19:20.981Z,18.58
2022-09-06T22:21:50.967Z,18.52
2022-09-06T22:24:20.978Z,18.46
2022-09-06T22:26:50.971Z,18.42
2022-09-06T22:29:20.977Z,18.34
2022-09-06T22:31:51.079Z,18.38
2022-09-06T22:34:23.758Z,18.23
2022-09-06T22:36:53.731Z,18.09
2022-09-06T22:39:23.717Z,18.08
2022-09-06T22:41:53.852Z,18.03
2022-09-06T22:44:23.834Z,17.96
2022-09-06T22:46:54.071Z,17.88
2022-09-06T22:49:26.889Z,17.88
2022-09-06T22:51:56.871Z,17.77
2022-09-06T22:54:27.211Z,17.73
2022-09-06T22:56:57.276Z,17.64
2022-09-06T22:59:27.360Z,17.61
2022-09-06T23:01:57.365Z,17.57
2022-09-06T23:04:30.313Z,17.60
2022-09-06T23:07:00.438Z,17.61
2022-09-06T23:09:30.396Z,17.57
2022-09-06T23:12:01.334Z,17.59
2022-09-06T23:14:31.610Z,17.60
2022-09-06T23:17:01.561Z,17.63
2022-09-06T23:19:34.192Z,17.60
2022-09-06T23:22:04.230Z,17.59
2022-09-06T23:24:34.254Z,17.57
2022-09-06T23:27:04.853Z,17.67
2022-09-06T23:29:35.189Z,17.65
2022-09-06T23:32:06.038Z,17.74
2022-09-06T23:34:38.624Z,17.76
2022-09-06T23:37:08.995Z,17.75
2022-09-06T23:39:39.068Z,17.69
2022-09-06T23:42:09.710Z,17.62
2022-09-06T23:44:39.672Z,17.67
2022-09-06T23:47:09.830Z,17.58
2022-09-06T23:49:42.520Z,17.55
2022-09-06T23:52:12.502Z,17.53
2022-09-06T23:54:42.532Z,17.50
2022-09-06T23:57:12.549Z,17.55
2022-09-06T23:59:42.581Z,17.47
